createdAt,value
2019-02-27T00:01:35.182Z,91.50
2019-02-27T00:04:04.582Z,91.60
2019-02-27T00:06:34.147Z,91.60
2019-02-27T00:09:05.245Z,91.50
2019-02-27T00:11:34.552Z,91.20
2019-02-27T00:14:03.864Z,91.50
2019-02-27T00:16:33.222Z,91.30
2019-02-27T00:19:05.395Z,91.30
2019-02-27T00:21:34.704Z,91.60
2019-02-27T00:24:04.060Z,91.60
2019-02-27T00:26:33.369Z,91.70
2019-02-27T00:29:02.972Z,91.80
2019-02-27T00:31:32.368Z,92.10
2019-02-27T00:34:01.679Z,91.70
2019-02-27T00:36:30.994Z,91.70
2019-02-27T00:39:00.421Z,92.30
2019-02-27T00:41:29.985Z,91.90
2019-02-27T00:44:01.335Z,92.00
2019-02-27T00:46:30.617Z,92.20
2019-02-27T00:48:59.931Z,92.10
2019-02-27T00:51:29.455Z,92.40
2019-02-27T00:53:59.019Z,92.00
2019-02-27T00:56:28.658Z,91.90
2019-02-27T00:59:00.131Z,91.80
2019-02-27T01:01:29.084Z,91.90
2019-02-27T01:04:00.992Z,92.00
2019-02-27T01:06:29.417Z,91.90
2019-02-27T01:08:59.129Z,92.20
2019-02-27T01:11:28.739Z,92.30
2019-02-27T01:13:58.349Z,92.40
2019-02-27T01:16:27.768Z,91.90
2019-02-27T01:18:57.099Z,91.90
2019-02-27T01:21:26.758Z,92.00
2019-02-27T01:23:56.113Z,92.40
2019-02-27T01:26:25.430Z,92.60
2019-02-27T01:28:55.915Z,92.70
2019-02-27T01:31:25.300Z,92.70
2019-02-27T01:33:54.610Z,92.60
2019-02-27T01:36:24.663Z,92.80
2019-02-27T01:38:54.765Z,92.60
2019-02-27T01:41:24.566Z,92.00
2019-02-27T01:43:54.524Z,91.80
2019-02-27T01:46:27.362Z,92.00
2019-02-27T01:48:55.212Z,92.20
2019-02-27T01:51:25.777Z,92.30
2019-02-27T01:53:55.686Z,92.60
2019-02-27T01:56:28.941Z,92.40
2019-02-27T01:58:56.292Z,92.30
2019-02-27T02:01:29.949Z,92.50
2019-02-27T02:03:56.947Z,92.70
2019-02-27T02:06:26.560Z,92.90
2019-02-27T02:09:13.150Z,93.40
2019-02-27T02:11:42.460Z,93.00
2019-02-27T02:14:42.058Z,92.90
2019-02-27T02:17:30.634Z,92.80
2019-02-27T02:20:43.463Z,92.90
2019-02-27T02:23:39.781Z,92.90
2019-02-27T02:26:32.145Z,93.30
2019-02-27T02:29:20.406Z,93.80
2019-02-27T02:32:04.096Z,94.00
2019-02-27T02:34:41.009Z,94.00
2019-02-27T02:37:21.236Z,94.10
2019-02-27T02:40:04.047Z,94.00
2019-02-27T02:42:54.488Z,94.00
2019-02-27T02:45:33.819Z,94.00
2019-02-27T02:48:35.158Z,94.30
2019-02-27T02:51:21.236Z,94.10
2019-02-27T02:54:24.149Z,94.10
2019-02-27T02:57:09.823Z,94.00
2019-02-27T02:59:49.855Z,93.60
2019-02-27T03:02:51.000Z,93.70
2019-02-27T03:05:42.473Z,94.70
2019-02-27T03:08:30.451Z,94.70
2019-02-27T03:11:34.506Z,94.60
2019-02-27T03:14:52.915Z,94.70
2019-02-27T03:17:38.344Z,95.30
2019-02-27T03:20:30.432Z,95.10
2019-02-27T03:23:33.337Z,95.20
2019-02-27T03:26:26.434Z,94.70
2019-02-27T03:29:38.578Z,94.60
2019-02-27T03:32:41.142Z,94.40
2019-02-27T03:35:48.252Z,94.80
2019-02-27T03:39:00.241Z,94.30
2019-02-27T03:42:05.789Z,94.30
2019-02-27T03:44:42.475Z,94.40
2019-02-27T03:47:55.763Z,93.90
2019-02-27T03:50:53.540Z,93.90
2019-02-27T03:53:33.226Z,94.00
2019-02-27T03:56:13.388Z,93.90
2019-02-27T03:59:05.606Z,93.80
2019-02-27T04:02:05.730Z,93.60
2019-02-27T04:04:57.186Z,93.70
2019-02-27T04:07:48.768Z,94.00
2019-02-27T04:10:18.122Z,94.10
2019-02-27T04:12:51.318Z,94.30
2019-02-27T04:15:18.945Z,94.10
2019-02-27T04:17:51.870Z,94.20
2019-02-27T04:20:18.241Z,94.60
2019-02-27T04:22:47.547Z,94.60
2019-02-27T04:25:16.918Z,93.90
2019-02-27T04:27:46.247Z,94.10
2019-02-27T04:30:16.789Z,94.40
2019-02-27T04:32:48.745Z,94.60
2019-02-27T04:35:17.450Z,94.40
2019-02-27T04:37:46.767Z,94.40
2019-02-27T04:40:16.127Z,94.40
2019-02-27T04:42:45.494Z,94.40
2019-02-27T04:45:34.600Z,94.50
2019-02-27T04:48:03.910Z,94.50
2019-02-27T04:50:33.224Z,94.90
2019-02-27T04:53:02.883Z,94.70
2019-02-27T04:55:32.204Z,94.70
2019-02-27T04:58:01.800Z,94.70
2019-02-27T05:00:31.427Z,94.60
2019-02-27T05:03:01.011Z,94.60
2019-02-27T05:05:30.567Z,94.10
2019-02-27T05:08:00.227Z,93.90
2019-02-27T05:10:29.589Z,93.90
2019-02-27T05:12:59.244Z,94.00
2019-02-27T05:15:28.853Z,94.40
2019-02-27T05:17:58.840Z,94.70
2019-02-27T05:20:28.168Z,94.10
2019-02-27T05:23:00.113Z,94.30
2019-02-27T05:25:28.811Z,95.00
2019-02-27T05:28:00.994Z,95.00
2019-02-27T05:30:29.516Z,94.70
2019-02-27T05:33:02.264Z,94.70
2019-02-27T05:35:30.581Z,95.40
2019-02-27T05:37:59.941Z,95.30
2019-02-27T05:40:29.249Z,95.40
2019-02-27T05:42:58.827Z,95.10
2019-02-27T05:45:31.225Z,95.30
2019-02-27T05:47:59.488Z,95.10
2019-02-27T05:50:28.803Z,95.50
2019-02-27T05:52:58.164Z,95.30
2019-02-27T05:55:27.784Z,95.10
2019-02-27T05:57:57.093Z,95.20
2019-02-27T06:00:26.517Z,95.40
2019-02-27T06:02:56.830Z,94.90
2019-02-27T06:05:26.441Z,95.20
2019-02-27T06:07:55.785Z,95.70
2019-02-27T06:10:25.102Z,95.20
2019-02-27T06:12:54.406Z,95.20
2019-02-27T06:15:26.090Z,94.80
2019-02-27T06:17:55.005Z,94.80
2019-02-27T06:20:24.319Z,95.00
2019-02-27T06:22:53.675Z,95.30
2019-02-27T06:25:23.965Z,95.50
2019-02-27T06:27:53.815Z,96.40
2019-02-27T06:30:23.168Z,96.20
2019-02-27T06:32:52.551Z,95.80
2019-02-27T06:35:22.106Z,95.30
2019-02-27T06:37:54.170Z,95.30
2019-02-27T06:40:23.479Z,95.50
2019-02-27T06:42:53.853Z,95.50
2019-02-27T06:45:23.862Z,95.70
2019-02-27T06:47:53.430Z,95.70
2019-02-27T06:50:25.255Z,95.20
2019-02-27T06:52:53.835Z,95.30
2019-02-27T06:55:28.097Z,95.50
2019-02-27T06:57:57.009Z,96.00
2019-02-27T07:00:27.091Z,95.70
2019-02-27T07:02:56.412Z,95.80
2019-02-27T07:05:25.718Z,95.50
2019-02-27T07:07:55.412Z,96.10
2019-02-27T07:10:25.013Z,95.70
2019-02-27T07:12:55.339Z,95.90
2019-02-27T07:15:25.260Z,95.90
2019-02-27T07:17:54.598Z,95.80
2019-02-27T07:20:25.145Z,95.80
2019-02-27T07:22:54.897Z,95.90
2019-02-27T07:25:25.014Z,95.80
2019-02-27T07:27:54.316Z,95.60
2019-02-27T07:30:24.010Z,95.60
2019-02-27T07:32:53.679Z,95.70
2019-02-27T07:35:25.484Z,95.60
2019-02-27T07:37:54.094Z,95.50
2019-02-27T07:40:23.407Z,95.50
2019-02-27T07:42:52.722Z,95.50
2019-02-27T07:45:23.449Z,95.50
2019-02-27T07:47:52.713Z,95.80
2019-02-27T07:50:22.608Z,95.60
2019-02-27T07:52:52.323Z,95.50
2019-02-27T07:55:23.614Z,95.30
2019-02-27T07:57:53.070Z,95.50
2019-02-27T08:00:23.579Z,95.70
2019-02-27T08:02:53.216Z,95.50
2019-02-27T08:05:25.901Z,95.50
2019-02-27T08:07:54.249Z,95.50
2019-02-27T08:10:25.245Z,95.30
2019-02-27T08:12:56.440Z,95.10
2019-02-27T08:15:26.179Z,94.80
2019-02-27T08:17:57.999Z,94.60
2019-02-27T08:20:27.138Z,94.50
2019-02-27T08:22:57.897Z,94.20
2019-02-27T08:25:27.445Z,94.20
2019-02-27T08:27:57.180Z,94.00
2019-02-27T08:30:28.999Z,93.80
2019-02-27T08:32:58.320Z,93.80
2019-02-27T08:35:27.881Z,93.30
2019-02-27T08:38:02.513Z,93.50
2019-02-27T08:40:28.342Z,93.00
2019-02-27T08:42:57.713Z,92.50
2019-02-27T08:45:27.775Z,92.50
2019-02-27T08:47:57.264Z,92.20
2019-02-27T08:50:29.294Z,92.20
2019-02-27T08:52:58.074Z,92.10
2019-02-27T08:55:27.669Z,92.00
2019-02-27T08:57:57.223Z,92.10
2019-02-27T09:00:34.627Z,91.10
2019-02-27T09:03:03.968Z,90.90
2019-02-27T09:05:33.262Z,90.70
2019-02-27T09:08:02.985Z,90.80
2019-02-27T09:10:32.288Z,90.60
2019-02-27T09:13:05.254Z,89.80
2019-02-27T09:15:33.156Z,89.50
2019-02-27T09:18:02.841Z,88.60
2019-02-27T09:20:32.140Z,89.70
2019-02-27T09:23:01.546Z,89.10
2019-02-27T09:25:31.160Z,89.30
2019-02-27T09:28:00.465Z,89.20
2019-02-27T09:30:30.220Z,88.50
2019-02-27T09:32:59.785Z,88.70
2019-02-27T09:35:32.529Z,87.10
2019-02-27T09:38:00.822Z,87.00
2019-02-27T09:40:30.763Z,87.20
2019-02-27T09:43:00.837Z,86.30
2019-02-27T09:45:35.644Z,86.50
2019-02-27T09:48:06.106Z,86.20
2019-02-27T09:50:48.357Z,86.50
2019-02-27T09:53:18.060Z,85.50
2019-02-27T09:55:47.752Z,85.70
2019-02-27T09:58:17.065Z,83.80
2019-02-27T10:00:50.707Z,83.00
2019-02-27T10:03:21.164Z,82.90
2019-02-27T10:05:51.041Z,83.70
2019-02-27T10:08:20.433Z,83.50
2019-02-27T10:10:50.315Z,83.80
2019-02-27T10:13:19.700Z,81.70
2019-02-27T10:15:49.003Z,81.70
2019-02-27T10:18:20.113Z,81.10
2019-02-27T10:20:52.449Z,80.50
2019-02-27T10:23:24.137Z,79.60
2019-02-27T10:25:53.768Z,80.30
2019-02-27T10:28:23.390Z,79.60
2019-02-27T10:30:52.768Z,79.80
2019-02-27T10:33:22.183Z,82.50
2019-02-27T10:35:51.646Z,80.60
2019-02-27T10:38:21.120Z,80.50
2019-02-27T10:40:50.806Z,80.60
2019-02-27T10:43:21.164Z,79.30
2019-02-27T10:45:50.609Z,78.80
2019-02-27T10:48:19.978Z,77.30
2019-02-27T10:50:49.291Z,77.10
2019-02-27T10:53:18.613Z,77.40
2019-02-27T10:55:49.313Z,76.50
2019-02-27T10:58:19.145Z,76.60
2019-02-27T11:00:50.438Z,76.40
2019-02-27T11:03:19.945Z,75.70
2019-02-27T11:05:52.369Z,75.00
2019-02-27T11:08:20.354Z,73.70
2019-02-27T11:10:49.895Z,74.40
2019-02-27T11:13:19.277Z,74.60
2019-02-27T11:15:49.125Z,72.40
2019-02-27T11:18:18.493Z,72.10
2019-02-27T11:20:47.810Z,72.60
2019-02-27T11:23:17.198Z,71.60
2019-02-27T11:25:46.568Z,71.60
2019-02-27T11:28:16.122Z,72.20
2019-02-27T11:30:46.406Z,70.90
2019-02-27T11:33:25.055Z,70.70
2019-02-27T11:35:47.055Z,67.40
2019-02-27T11:38:16.444Z,64.80
2019-02-27T11:40:45.819Z,63.90
2019-02-27T11:43:17.160Z,63.80
2019-02-27T11:45:46.449Z,63.50
2019-02-27T11:48:15.795Z,64.30
2019-02-27T11:50:45.475Z,63.80
2019-02-27T11:53:14.790Z,63.20
2019-02-27T11:55:47.043Z,62.90
2019-02-27T11:58:15.451Z,61.40
2019-02-27T12:00:44.833Z,62.20
2019-02-27T12:03:14.143Z,61.00
2019-02-27T12:05:43.515Z,58.50
2019-02-27T12:08:12.835Z,62.90
2019-02-27T12:10:42.185Z,62.20
2019-02-27T12:13:11.519Z,62.00
2019-02-27T12:15:43.381Z,62.00
2019-02-27T12:18:12.143Z,59.70
2019-02-27T12:20:41.597Z,57.40
2019-02-27T12:23:11.159Z,58.70
2019-02-27T12:25:40.618Z,58.40
2019-02-27T12:28:10.334Z,56.90
2019-02-27T12:30:39.969Z,56.40
2019-02-27T12:33:09.448Z,56.80
2019-02-27T12:35:39.086Z,57.10
2019-02-27T12:38:08.607Z,56.20
2019-02-27T12:40:37.990Z,55.90
2019-02-27T12:43:07.379Z,54.70
2019-02-27T12:45:36.691Z,56.00
2019-02-27T12:48:06.220Z,52.50
2019-02-27T12:50:35.994Z,53.90
2019-02-27T12:53:06.464Z,53.90
2019-02-27T12:55:36.464Z,54.00
2019-02-27T12:58:06.080Z,52.50
2019-02-27T13:00:36.900Z,51.70
2019-02-27T13:03:09.355Z,50.60
2019-02-27T13:05:37.745Z,50.10
2019-02-27T13:08:07.393Z,49.10
2019-02-27T13:10:36.771Z,49.50
2019-02-27T13:13:06.183Z,48.90
2019-02-27T13:15:35.497Z,47.90
2019-02-27T13:18:04.920Z,49.10
2019-02-27T13:20:37.562Z,49.30
2019-02-27T13:23:07.210Z,48.20
2019-02-27T13:25:36.886Z,47.40
2019-02-27T13:28:06.329Z,48.30
2019-02-27T13:30:35.648Z,49.40
2019-02-27T13:33:05.180Z,47.60
2019-02-27T13:35:34.834Z,47.00
2019-02-27T13:38:04.216Z,47.20
2019-02-27T13:40:35.831Z,45.10
2019-02-27T13:43:04.884Z,43.30
2019-02-27T13:45:34.272Z,43.40
2019-02-27T13:48:05.920Z,43.20
2019-02-27T13:50:34.750Z,41.30
2019-02-27T13:53:04.134Z,42.00
2019-02-27T13:55:33.501Z,42.80
2019-02-27T13:58:03.804Z,42.10
2019-02-27T14:00:38.284Z,42.00
2019-02-27T14:03:12.837Z,41.10
2019-02-27T14:05:41.757Z,40.80
2019-02-27T14:08:11.069Z,39.80
2019-02-27T14:10:40.750Z,39.30
2019-02-27T14:13:10.065Z,39.20
2019-02-27T14:15:39.615Z,36.40
2019-02-27T14:18:09.260Z,37.10
2019-02-27T14:20:38.584Z,36.90
2019-02-27T14:23:08.366Z,35.90
2019-02-27T14:25:37.803Z,36.70
2019-02-27T14:28:07.116Z,36.20
2019-02-27T14:30:50.762Z,35.50
2019-02-27T14:33:20.626Z,36.20
2019-02-27T14:35:50.047Z,35.80
2019-02-27T14:38:21.821Z,35.70
2019-02-27T14:40:50.481Z,35.20
2019-02-27T14:43:19.804Z,35.00
2019-02-27T14:45:50.728Z,35.80
2019-02-27T14:48:21.419Z,35.70
2019-02-27T14:50:51.711Z,36.10
2019-02-27T14:53:21.075Z,36.60
2019-02-27T14:55:50.688Z,35.20
2019-02-27T14:58:24.107Z,36.40
2019-02-27T15:00:51.162Z,35.70
2019-02-27T15:03:20.467Z,35.50
2019-02-27T15:05:49.802Z,36.70
2019-02-27T15:08:19.177Z,37.40
2019-02-27T15:10:48.486Z,37.50
2019-02-27T15:13:17.807Z,38.50
2019-02-27T15:15:47.484Z,39.50
2019-02-27T15:18:16.826Z,39.40
2019-02-27T15:20:46.140Z,39.10
2019-02-27T15:23:15.500Z,40.00
2019-02-27T15:25:44.811Z,40.40
2019-02-27T15:28:14.478Z,39.90
2019-02-27T15:30:46.394Z,39.00
2019-02-27T15:33:16.435Z,39.00
2019-02-27T15:35:45.966Z,37.90
2019-02-27T15:38:15.396Z,35.90
2019-02-27T15:40:45.298Z,36.20
2019-02-27T15:43:17.293Z,35.90
2019-02-27T15:45:47.979Z,35.70
2019-02-27T15:48:16.888Z,35.90
2019-02-27T15:50:46.304Z,35.70
2019-02-27T15:53:15.898Z,35.80
2019-02-27T15:55:45.675Z,35.90
2019-02-27T15:58:15.031Z,34.80
2019-02-27T16:00:44.347Z,34.70
2019-02-27T16:03:15.855Z,34.10
2019-02-27T16:05:45.838Z,35.30
2019-02-27T16:08:15.412Z,34.70
2019-02-27T16:10:54.349Z,35.30
2019-02-27T16:13:16.158Z,35.90
2019-02-27T16:15:48.497Z,35.40
2019-02-27T16:18:19.443Z,35.90
2019-02-27T16:20:49.979Z,35.50
2019-02-27T16:23:20.044Z,35.70
2019-02-27T16:25:52.846Z,36.60
2019-02-27T16:28:20.560Z,38.40
2019-02-27T16:30:49.887Z,39.00
2019-02-27T16:33:23.551Z,39.60
2019-02-27T16:35:50.305Z,40.50
2019-02-27T16:38:19.934Z,39.90
2019-02-27T16:40:52.454Z,40.30
2019-02-27T16:43:20.389Z,40.90
2019-02-27T16:45:49.740Z,42.80
2019-02-27T16:48:19.443Z,44.00
2019-02-27T16:50:48.789Z,44.60
2019-02-27T16:53:19.495Z,45.40
2019-02-27T16:55:48.947Z,46.50
2019-02-27T16:58:18.277Z,48.20
2019-02-27T17:00:47.611Z,49.80
2019-02-27T17:03:16.928Z,51.50
2019-02-27T17:05:46.232Z,53.80
2019-02-27T17:08:15.582Z,54.40
2019-02-27T17:10:44.985Z,55.00
2019-02-27T17:13:15.385Z,56.00
2019-02-27T17:15:44.943Z,56.10
2019-02-27T17:18:14.420Z,57.20
2019-02-27T17:20:46.518Z,58.10
2019-02-27T17:23:14.820Z,58.70
2019-02-27T17:25:44.196Z,59.40
2019-02-27T17:28:13.512Z,59.70
2019-02-27T17:30:43.281Z,60.80
2019-02-27T17:33:12.660Z,61.50
2019-02-27T17:35:42.265Z,62.50
2019-02-27T17:38:13.702Z,62.10
2019-02-27T17:40:42.718Z,61.80
2019-02-27T17:43:12.023Z,61.80
2019-02-27T17:45:41.328Z,62.40
2019-02-27T17:48:12.445Z,63.40
2019-02-27T17:50:42.037Z,63.90
2019-02-27T17:53:11.354Z,64.30
2019-02-27T17:55:41.597Z,65.50
2019-02-27T17:58:11.918Z,65.70
2019-02-27T18:00:43.190Z,66.50
2019-02-27T18:03:12.826Z,67.20
2019-02-27T18:05:42.451Z,67.50
2019-02-27T18:08:15.975Z,68.20
2019-02-27T18:10:42.844Z,68.70
2019-02-27T18:13:12.162Z,68.40
2019-02-27T18:15:41.485Z,67.70
2019-02-27T18:18:10.836Z,67.50
2019-02-27T18:20:40.190Z,67.50
2019-02-27T18:23:09.820Z,67.60
2019-02-27T18:25:42.109Z,67.90
2019-02-27T18:28:11.047Z,68.10
2019-02-27T18:30:42.629Z,69.00
2019-02-27T18:33:14.300Z,69.20
2019-02-27T18:35:43.466Z,69.50
2019-02-27T18:38:13.147Z,69.60
2019-02-27T18:40:42.891Z,69.90
2019-02-27T18:43:13.152Z,69.70
2019-02-27T18:45:45.380Z,69.40
2019-02-27T18:48:15.210Z,70.00
2019-02-27T18:50:44.730Z,70.30
2019-02-27T18:53:14.102Z,70.40
2019-02-27T18:55:44.096Z,70.80
2019-02-27T18:58:13.599Z,71.30
2019-02-27T19:00:42.976Z,71.60
2019-02-27T19:03:13.289Z,72.10
2019-02-27T19:05:42.656Z,72.40
2019-02-27T19:08:11.969Z,72.60
2019-02-27T19:10:42.604Z,73.00
2019-02-27T19:13:12.381Z,72.10
2019-02-27T19:15:45.274Z,72.20
2019-02-27T19:18:13.646Z,72.60
2019-02-27T19:20:48.272Z,72.30
2019-02-27T19:23:18.506Z,72.80
2019-02-27T19:25:48.128Z,72.90
2019-02-27T19:28:17.446Z,73.40
2019-02-27T19:30:46.866Z,73.10
2019-02-27T19:33:16.443Z,73.50
2019-02-27T19:35:45.842Z,73.30
2019-02-27T19:38:15.507Z,72.90
2019-02-27T19:40:44.955Z,73.10
2019-02-27T19:43:14.348Z,73.00
2019-02-27T19:45:43.712Z,73.30
2019-02-27T19:48:13.431Z,73.10
2019-02-27T19:50:46.249Z,72.50
2019-02-27T19:53:14.004Z,72.10
2019-02-27T19:55:43.590Z,71.50
2019-02-27T19:58:16.974Z,71.70
2019-02-27T20:00:48.504Z,71.10
2019-02-27T20:03:15.556Z,70.90
2019-02-27T20:05:45.188Z,70.90
2019-02-27T20:08:14.849Z,71.30
2019-02-27T20:10:44.547Z,72.00
2019-02-27T20:13:13.932Z,72.80
2019-02-27T20:15:45.675Z,72.90
2019-02-27T20:18:15.208Z,73.40
2019-02-27T20:20:45.233Z,73.10
2019-02-27T20:23:15.133Z,72.70
2019-02-27T20:25:44.606Z,72.80
2019-02-27T20:28:14.635Z,72.80
2019-02-27T20:30:44.125Z,72.20
2019-02-27T20:33:13.886Z,72.30
2019-02-27T20:35:43.325Z,72.70
2019-02-27T20:38:15.990Z,73.10
2019-02-27T20:40:43.994Z,73.10
2019-02-27T20:43:13.360Z,73.00
2019-02-27T20:45:43.533Z,72.20
2019-02-27T20:48:13.456Z,71.70
2019-02-27T20:50:49.859Z,71.80
2019-02-27T20:53:21.025Z,71.80
2019-02-27T20:55:50.223Z,71.60
2019-02-27T20:58:22.024Z,71.80
2019-02-27T21:00:50.730Z,71.80
2019-02-27T21:03:20.059Z,71.70
2019-02-27T21:05:52.731Z,71.30
2019-02-27T21:08:22.434Z,71.50
2019-02-27T21:10:55.249Z,71.60
2019-02-27T21:13:23.350Z,71.30
2019-02-27T21:15:52.661Z,71.30
2019-02-27T21:18:21.980Z,71.10
2019-02-27T21:20:51.360Z,70.50
2019-02-27T21:23:20.945Z,70.80
2019-02-27T21:25:50.270Z,70.70
2019-02-27T21:28:21.249Z,70.30
2019-02-27T21:30:52.354Z,70.00
2019-02-27T21:33:22.086Z,69.90
2019-02-27T21:35:51.675Z,70.10
2019-02-27T21:38:20.997Z,71.00
2019-02-27T21:40:50.313Z,70.50
2019-02-27T21:43:25.383Z,70.60
2019-02-27T21:45:50.786Z,71.70
2019-02-27T21:48:20.107Z,71.40
2019-02-27T21:50:49.719Z,72.00
2019-02-27T21:53:19.043Z,72.20
2019-02-27T21:55:48.733Z,72.40
2019-02-27T21:58:20.680Z,72.90
2019-02-27T22:00:49.159Z,72.90
2019-02-27T22:03:18.497Z,73.70
2019-02-27T22:05:52.665Z,74.10
2019-02-27T22:08:20.032Z,74.10
2019-02-27T22:10:53.068Z,74.40
2019-02-27T22:13:28.878Z,74.50
2019-02-27T22:15:55.805Z,74.30
2019-02-27T22:18:22.798Z,74.30
2019-02-27T22:20:52.429Z,75.40
2019-02-27T22:23:21.748Z,75.10
2019-02-27T22:25:51.070Z,74.90
2019-02-27T22:28:20.805Z,74.90
2019-02-27T22:30:50.791Z,75.30
2019-02-27T22:33:22.982Z,75.30
2019-02-27T22:35:51.216Z,75.30
2019-02-27T22:38:25.889Z,75.30
2019-02-27T22:40:51.862Z,75.50
2019-02-27T22:43:22.114Z,76.10
2019-02-27T22:45:52.418Z,76.30
2019-02-27T22:48:21.785Z,76.20
2019-02-27T22:50:51.142Z,76.50
2019-02-27T22:53:20.553Z,76.50
2019-02-27T22:55:49.865Z,76.50
2019-02-27T22:58:19.842Z,77.00
2019-02-27T23:01:01.883Z,77.00
2019-02-27T23:03:36.063Z,77.50
2019-02-27T23:06:06.183Z,77.50
2019-02-27T23:08:37.218Z,77.40
2019-02-27T23:11:07.183Z,78.10
2019-02-27T23:13:36.944Z,77.90
2019-02-27T23:16:06.725Z,78.60
2019-02-27T23:18:37.365Z,78.60
2019-02-27T23:21:07.608Z,79.90
2019-02-27T23:23:37.489Z,80.50
2019-02-27T23:26:07.443Z,80.40
2019-02-27T23:28:36.838Z,80.70
2019-02-27T23:31:06.142Z,80.50
2019-02-27T23:33:36.677Z,80.30
2019-02-27T23:36:06.678Z,80.30
2019-02-27T23:38:35.976Z,80.40
2019-02-27T23:41:05.489Z,80.30
2019-02-27T23:43:35.087Z,80.80
2019-02-27T23:46:05.570Z,80.80
2019-02-27T23:48:36.221Z,80.80
2019-02-27T23:51:06.259Z,81.40
2019-02-27T23:53:35.573Z,81.80
2019-02-27T23:56:05.762Z,81.60
2019-02-27T23:58:35.087Z,82.00
